createdAt,value
2022-11-20T00:00:11.980Z,-2.6
2022-11-20T00:01:26.257Z,-2.6
2022-11-20T00:02:40.539Z,-2.5
2022-11-20T00:03:54.952Z,-2.5
2022-11-20T00:05:09.275Z,-2.5
2022-11-20T00:07:37.885Z,-2.5
2022-11-20T00:08:52.306Z,-2.6
2022-11-20T00:10:06.645Z,-2.6
2022-11-20T00:11:19.982Z,-2.6
2022-11-20T00:12:34.271Z,-2.6
2022-11-20T00:13:48.671Z,-2.6
2022-11-20T00:15:03.006Z,-2.6
2022-11-20T00:16:17.279Z,-2.7
2022-11-20T00:17:31.564Z,-2.7
2022-11-20T00:18:45.981Z,-2.7
2022-11-20T00:20:00.301Z,-2.7
2022-11-20T00:21:14.570Z,-2.8
2022-11-20T00:22:28.856Z,-2.8
2022-11-20T00:23:43.271Z,-2.8
2022-11-20T00:24:57.596Z,-2.8
2022-11-20T00:26:11.874Z,-2.8
2022-11-20T00:27:26.152Z,-2.8
2022-11-20T00:28:40.572Z,-2.8
2022-11-20T00:29:54.891Z,-2.8
2022-11-20T00:31:09.165Z,-2.9
2022-11-20T00:32:23.455Z,-2.9
2022-11-20T00:33:37.869Z,-2.9
2022-11-20T00:36:06.461Z,-2.9
2022-11-20T00:37:20.747Z,-2.9
2022-11-20T00:38:35.158Z,-3
2022-11-20T00:39:49.474Z,-3
2022-11-20T00:41:03.770Z,-3
2022-11-20T00:42:18.111Z,-3
2022-11-20T00:43:32.510Z,-3.1
2022-11-20T00:44:46.847Z,-3.1
2022-11-20T00:46:01.182Z,-3
2022-11-20T00:47:14.540Z,-2.9
2022-11-20T00:48:28.945Z,-2.9
2022-11-20T00:49:43.281Z,-2.8
2022-11-20T00:50:57.547Z,-2.8
2022-11-20T00:52:11.831Z,-2.8
2022-11-20T00:53:26.246Z,-2.8
2022-11-20T00:54:40.562Z,-2.9
2022-11-20T00:55:54.853Z,-2.9
2022-11-20T00:58:23.552Z,-3
2022-11-20T00:59:37.860Z,-3
2022-11-20T01:00:52.155Z,-2.9
2022-11-20T01:02:06.431Z,-2.9
2022-11-20T01:03:20.832Z,-2.8
2022-11-20T01:04:35.158Z,-2.8
2022-11-20T01:05:49.438Z,-2.8
2022-11-20T01:07:03.728Z,-2.9
2022-11-20T01:08:18.132Z,-2.9
2022-11-20T01:09:32.459Z,-2.9
2022-11-20T01:10:46.747Z,-3
2022-11-20T01:12:01.030Z,-3
2022-11-20T01:13:15.441Z,-3.1
2022-11-20T01:14:29.762Z,-3.1
2022-11-20T01:15:44.042Z,-3.1
2022-11-20T01:16:58.313Z,-3.1
2022-11-20T01:18:12.778Z,-3.1
2022-11-20T01:19:27.122Z,-3.1
2022-11-20T01:20:40.484Z,-3.1
2022-11-20T01:21:54.756Z,-3.2
2022-11-20T01:23:09.166Z,-3.2
2022-11-20T01:24:23.493Z,-3.2
2022-11-20T01:25:37.778Z,-3.3
2022-11-20T01:26:52.052Z,-3.3
2022-11-20T01:28:06.464Z,-3.3
2022-11-20T01:29:20.795Z,-3.3
2022-11-20T01:30:35.074Z,-3.4
2022-11-20T01:31:49.348Z,-3.5
2022-11-20T01:33:03.756Z,-3.4
2022-11-20T01:34:18.089Z,-3.3
2022-11-20T01:35:32.363Z,-3.3
2022-11-20T01:36:46.646Z,-3.2
2022-11-20T01:38:01.065Z,-3.2
2022-11-20T01:39:15.388Z,-3.2
2022-11-20T01:40:29.658Z,-3.3
2022-11-20T01:41:43.938Z,-3.3
2022-11-20T01:42:58.359Z,-3.3
2022-11-20T01:44:12.678Z,-3.3
2022-11-20T01:45:26.959Z,-3.4
2022-11-20T01:46:41.235Z,-3.4
2022-11-20T01:47:55.658Z,-3.4
2022-11-20T01:49:09.976Z,-3.5
2022-11-20T01:50:24.260Z,-3.5
2022-11-20T01:51:38.591Z,-3.5
2022-11-20T01:52:52.999Z,-3.5
2022-11-20T01:54:07.335Z,-3.5
2022-11-20T01:55:20.693Z,-3.5
2022-11-20T01:56:34.971Z,-3.5
2022-11-20T01:57:49.388Z,-3.5
2022-11-20T01:59:03.710Z,-3.5
2022-11-20T02:01:32.445Z,-3.5
2022-11-20T02:02:46.725Z,-3.5
2022-11-20T02:04:01.136Z,-3.5
2022-11-20T02:05:15.447Z,-3.5
2022-11-20T02:06:29.734Z,-3.5
2022-11-20T02:07:44.020Z,-3.4
2022-11-20T02:08:58.422Z,-3.5
2022-11-20T02:10:12.739Z,-3.4
2022-11-20T02:11:27.021Z,-3.5
2022-11-20T02:12:41.321Z,-3.5
2022-11-20T02:13:55.717Z,-3.5
2022-11-20T02:15:10.035Z,-3.5
2022-11-20T02:16:24.335Z,-3.5
2022-11-20T02:17:38.607Z,-3.5
2022-11-20T02:18:53.018Z,-3.6
2022-11-20T02:20:07.345Z,-3.6
2022-11-20T02:21:21.633Z,-3.7
2022-11-20T02:22:35.905Z,-3.8
2022-11-20T02:23:50.315Z,-3.8
2022-11-20T02:25:04.631Z,-3.8
2022-11-20T02:26:18.922Z,-3.7
2022-11-20T02:27:33.210Z,-3.7
2022-11-20T02:28:47.602Z,-3.7
2022-11-20T02:30:01.936Z,-3.7
2022-11-20T02:31:16.218Z,-3.7
2022-11-20T02:32:30.490Z,-3.7
2022-11-20T02:33:44.908Z,-3.7
2022-11-20T02:34:59.235Z,-3.6
2022-11-20T02:36:13.520Z,-3.6
2022-11-20T02:37:27.791Z,-3.6
2022-11-20T02:38:42.212Z,-3.6
2022-11-20T02:39:56.531Z,-3.6
2022-11-20T02:41:10.811Z,-3.6
2022-11-20T02:42:25.088Z,-3.6
2022-11-20T02:43:39.509Z,-3.7
2022-11-20T02:44:53.824Z,-3.7
2022-11-20T02:46:08.168Z,-3.7
2022-11-20T02:47:21.519Z,-3.7
2022-11-20T02:48:35.846Z,-3.8
2022-11-20T02:49:50.122Z,-3.8
2022-11-20T02:51:04.421Z,-3.8
2022-11-20T02:52:18.822Z,-3.8
2022-11-20T02:53:33.140Z,-3.8
2022-11-20T02:54:47.419Z,-3.8
2022-11-20T02:56:01.695Z,-3.8
2022-11-20T02:57:16.120Z,-3.7
2022-11-20T02:58:30.427Z,-3.7
2022-11-20T02:59:44.715Z,-3.7
2022-11-20T03:00:58.993Z,-3.7
2022-11-20T03:02:13.416Z,-3.7
2022-11-20T03:03:27.728Z,-3.7
2022-11-20T03:05:56.287Z,-3.7
2022-11-20T03:07:10.704Z,-3.7
2022-11-20T03:08:25.020Z,-3.7
2022-11-20T03:09:39.300Z,-3.8
2022-11-20T03:10:53.594Z,-3.8
2022-11-20T03:12:08.007Z,-3.8
2022-11-20T03:13:22.316Z,-3.8
2022-11-20T03:14:36.598Z,-3.8
2022-11-20T03:15:50.887Z,-3.8
2022-11-20T03:17:05.297Z,-3.8
2022-11-20T03:18:19.674Z,-3.8
2022-11-20T03:19:33.038Z,-3.8
2022-11-20T03:20:47.313Z,-3.8
2022-11-20T03:22:01.731Z,-3.7
2022-11-20T03:23:16.061Z,-3.7
2022-11-20T03:24:30.329Z,-3.7
2022-11-20T03:25:44.618Z,-3.7
2022-11-20T03:26:59.029Z,-3.8
2022-11-20T03:28:13.340Z,-3.8
2022-11-20T03:29:27.625Z,-3.8
2022-11-20T03:30:41.915Z,-3.9
2022-11-20T03:31:56.330Z,-3.9
2022-11-20T03:33:10.644Z,-3.9
2022-11-20T03:34:24.937Z,-3.9
2022-11-20T03:35:39.217Z,-3.9
2022-11-20T03:36:53.610Z,-3.9
2022-11-20T03:38:07.937Z,-3.9
2022-11-20T03:39:22.228Z,-3.9
2022-11-20T03:40:36.516Z,-3.9
2022-11-20T03:41:50.911Z,-4
2022-11-20T03:43:05.236Z,-3.9
2022-11-20T03:44:19.520Z,-3.9
2022-11-20T03:45:33.807Z,-3.8
2022-11-20T03:46:48.206Z,-3.9
2022-11-20T03:48:02.541Z,-3.9
2022-11-20T03:49:16.827Z,-3.9
2022-11-20T03:50:31.155Z,-3.9
2022-11-20T03:51:45.557Z,-4
2022-11-20T03:52:59.896Z,-4
2022-11-20T03:54:13.247Z,-4
2022-11-20T03:55:27.533Z,-4
2022-11-20T03:56:41.949Z,-4
2022-11-20T03:57:56.276Z,-4.1
2022-11-20T03:59:10.545Z,-4.1
2022-11-20T04:00:24.829Z,-4.1
2022-11-20T04:01:39.236Z,-4.1
2022-11-20T04:02:53.577Z,-4.1
2022-11-20T04:04:07.847Z,-4.2
2022-11-20T04:05:22.123Z,-4.2
2022-11-20T04:06:36.542Z,-4.2
2022-11-20T04:07:50.864Z,-4.2
2022-11-20T04:09:05.144Z,-4.2
2022-11-20T04:10:19.429Z,-4.2
2022-11-20T04:11:33.828Z,-4.3
2022-11-20T04:12:48.157Z,-4.3
2022-11-20T04:14:02.445Z,-4.3
2022-11-20T04:15:16.730Z,-4.3
2022-11-20T04:16:31.137Z,-4.3
2022-11-20T04:17:45.454Z,-4.3
2022-11-20T04:18:59.748Z,-4.3
2022-11-20T04:20:14.019Z,-4.3
2022-11-20T04:21:28.432Z,-4.3
2022-11-20T04:22:42.754Z,-4.3
2022-11-20T04:23:57.038Z,-4.3
2022-11-20T04:25:11.380Z,-4.3
2022-11-20T04:26:25.787Z,-4.4
2022-11-20T04:28:54.459Z,-4.3
2022-11-20T04:30:08.887Z,-4.4
2022-11-20T04:31:23.159Z,-4.4
2022-11-20T04:32:37.569Z,-4.4
2022-11-20T04:33:51.900Z,-4.4
2022-11-20T04:35:06.181Z,-4.4
2022-11-20T04:36:20.467Z,-4.4
2022-11-20T04:37:34.871Z,-4.4
2022-11-20T04:38:49.199Z,-4.4
2022-11-20T04:40:03.472Z,-4.4
2022-11-20T04:41:17.752Z,-4.4
2022-11-20T04:42:32.173Z,-4.4
2022-11-20T04:43:46.493Z,-4.5
2022-11-20T04:45:00.781Z,-4.5
2022-11-20T04:46:15.055Z,-4.4
2022-11-20T04:47:29.471Z,-4.4
2022-11-20T04:48:43.783Z,-4.4
2022-11-20T04:49:58.067Z,-4.4
2022-11-20T04:51:12.349Z,-4.4
2022-11-20T04:52:26.763Z,-4.4
2022-11-20T04:53:41.097Z,-4.4
2022-11-20T04:54:55.360Z,-4.5
2022-11-20T04:56:09.658Z,-4.5
2022-11-20T04:57:24.054Z,-4.5
2022-11-20T04:58:38.395Z,-4.5
2022-11-20T04:59:52.659Z,-4.5
2022-11-20T05:01:06.998Z,-4.5
2022-11-20T05:02:21.415Z,-4.5
2022-11-20T05:03:35.758Z,-4.5
2022-11-20T05:04:49.100Z,-4.5
2022-11-20T05:06:03.389Z,-4.5
2022-11-20T05:07:17.788Z,-4.5
2022-11-20T05:08:32.110Z,-4.5
2022-11-20T05:09:46.397Z,-4.5
2022-11-20T05:11:00.688Z,-4.5
2022-11-20T05:12:15.086Z,-4.5
2022-11-20T05:14:43.708Z,-4.6
2022-11-20T05:15:57.985Z,-4.7
2022-11-20T05:17:12.395Z,-4.7
2022-11-20T05:18:26.705Z,-4.7
2022-11-20T05:19:40.994Z,-4.7
2022-11-20T05:20:55.285Z,-4.7
2022-11-20T05:22:09.683Z,-4.7
2022-11-20T05:23:24.012Z,-4.7
2022-11-20T05:24:38.296Z,-4.7
2022-11-20T05:25:52.566Z,-4.7
2022-11-20T05:27:06.976Z,-4.7
2022-11-20T05:28:21.310Z,-4.7
2022-11-20T05:29:35.595Z,-4.6
2022-11-20T05:30:49.872Z,-4.6
2022-11-20T05:32:04.272Z,-4.6
2022-11-20T05:33:18.604Z,-4.6
2022-11-20T05:35:47.227Z,-4.6
2022-11-20T05:37:01.639Z,-4.5
2022-11-20T05:38:15.967Z,-4.5
2022-11-20T05:39:29.330Z,-4.4
2022-11-20T05:40:43.607Z,-4.4
2022-11-20T05:41:58.024Z,-4.2
2022-11-20T05:43:12.343Z,-4.1
2022-11-20T05:44:26.625Z,-4.1
2022-11-20T05:45:40.897Z,-4.1
2022-11-20T05:46:55.305Z,-4
2022-11-20T05:48:09.645Z,-3.9
2022-11-20T05:49:23.910Z,-3.9
2022-11-20T05:51:52.607Z,-3.8
2022-11-20T05:53:06.935Z,-3.8
2022-11-20T05:54:21.219Z,-3.7
2022-11-20T05:55:35.494Z,-3.7
2022-11-20T05:56:49.911Z,-3.6
2022-11-20T05:58:04.228Z,-3.6
2022-11-20T05:59:18.506Z,-3.6
2022-11-20T06:00:32.798Z,-3.6
2022-11-20T06:01:47.208Z,-3.6
2022-11-20T06:03:01.526Z,-3.6
2022-11-20T06:04:15.805Z,-3.5
2022-11-20T06:05:30.099Z,-3.5
2022-11-20T06:06:44.494Z,-3.4
2022-11-20T06:07:58.829Z,-3.4
2022-11-20T06:09:13.115Z,-3.4
2022-11-20T06:10:27.438Z,-3.4
2022-11-20T06:11:41.846Z,-3.4
2022-11-20T06:12:56.196Z,-3.3
2022-11-20T06:14:09.487Z,-3.3
2022-11-20T06:15:23.721Z,-3.3
2022-11-20T06:16:38.024Z,-3.2
2022-11-20T06:17:52.252Z,-3.2
2022-11-20T06:19:06.549Z,-3.2
2022-11-20T06:20:20.875Z,-3.2
2022-11-20T06:21:35.151Z,-3.2
2022-11-20T06:22:49.517Z,-3.2
2022-11-20T06:24:03.776Z,-3.2
2022-11-20T06:25:18.048Z,-3.1
2022-11-20T06:26:32.342Z,-3.1
2022-11-20T06:27:46.562Z,-3.1
2022-11-20T06:29:00.860Z,-3.2
2022-11-20T06:30:15.107Z,-3.1
2022-11-20T06:31:29.339Z,-3.1
2022-11-20T06:32:43.552Z,-3.1
2022-11-20T06:33:57.786Z,-3.1
2022-11-20T06:35:12.091Z,-3.2
2022-11-20T06:36:26.330Z,-3.2
2022-11-20T06:37:40.548Z,-3.2
2022-11-20T06:38:54.782Z,-3.2
2022-11-20T06:40:09.017Z,-3.2
2022-11-20T06:41:23.315Z,-3.2
2022-11-20T06:42:37.557Z,-3.2
2022-11-20T06:43:51.790Z,-3.2
2022-11-20T06:45:06.071Z,-3.2
2022-11-20T06:46:19.409Z,-3.2
2022-11-20T06:47:33.693Z,-3.2
2022-11-20T06:48:46.990Z,-3.3
2022-11-20T06:50:01.202Z,-3.2
2022-11-20T06:51:15.512Z,-3.3
2022-11-20T06:52:29.749Z,-3.3
2022-11-20T06:53:43.990Z,-3.2
2022-11-20T06:54:58.199Z,-3.2
2022-11-20T06:56:12.427Z,-3.2
2022-11-20T06:57:26.728Z,-3.2
2022-11-20T06:58:40.987Z,-3.1
2022-11-20T06:59:55.205Z,-3.1
2022-11-20T07:01:09.440Z,-3.1
2022-11-20T07:02:23.665Z,-3.1
2022-11-20T07:03:37.958Z,-3.1
2022-11-20T07:04:52.198Z,-3.1
2022-11-20T07:06:06.431Z,-3
2022-11-20T07:07:20.664Z,-3.1
2022-11-20T07:08:34.889Z,-3.1
2022-11-20T07:09:49.193Z,-3.1
2022-11-20T07:11:03.436Z,-3.1
2022-11-20T07:12:17.651Z,-3.1
2022-11-20T07:13:31.889Z,-3.1
2022-11-20T07:14:46.116Z,-3.1
2022-11-20T07:16:00.410Z,-3.1
2022-11-20T07:17:14.657Z,-3.1
2022-11-20T07:18:28.890Z,-3.1
2022-11-20T07:19:43.181Z,-3.1
2022-11-20T07:20:56.463Z,-3.1
2022-11-20T07:22:10.717Z,-3.1
2022-11-20T07:23:24.937Z,-3.1
2022-11-20T07:24:39.175Z,-3.1
2022-11-20T07:27:07.692Z,-3
2022-11-20T07:28:21.935Z,-2.9
2022-11-20T07:29:36.166Z,-3
2022-11-20T07:30:50.383Z,-3
2022-11-20T07:32:04.621Z,-3
2022-11-20T07:33:18.921Z,-3
2022-11-20T07:34:33.173Z,-3
2022-11-20T07:35:47.389Z,-3
2022-11-20T07:37:01.616Z,-3
2022-11-20T07:38:15.846Z,-3
2022-11-20T07:39:30.155Z,-2.9
2022-11-20T07:40:44.397Z,-2.9
2022-11-20T07:41:58.617Z,-2.9
2022-11-20T07:43:12.854Z,-3
2022-11-20T07:45:41.372Z,-3
2022-11-20T07:46:55.613Z,-2.9
2022-11-20T07:48:09.838Z,-2.9
2022-11-20T07:49:24.066Z,-2.8
2022-11-20T07:50:38.303Z,-2.8
2022-11-20T07:51:52.664Z,-2.8
2022-11-20T07:53:06.947Z,-2.8
2022-11-20T07:54:20.301Z,-2.8
2022-11-20T07:55:33.641Z,-2.7
2022-11-20T07:56:47.925Z,-2.7
2022-11-20T07:58:02.211Z,-2.7
2022-11-20T07:59:16.501Z,-2.6
2022-11-20T08:00:29.799Z,-2.6
2022-11-20T08:01:44.023Z,-2.6
2022-11-20T08:02:58.254Z,-2.6
2022-11-20T08:04:12.482Z,-2.5
2022-11-20T08:05:26.714Z,-2.5
2022-11-20T08:06:41.014Z,-2.5
2022-11-20T08:07:55.251Z,-2.5
2022-11-20T08:09:09.489Z,-2.4
2022-11-20T08:10:23.715Z,-2.4
2022-11-20T08:11:37.940Z,-2.4
2022-11-20T08:12:52.233Z,-2.4
2022-11-20T08:14:06.477Z,-2.5
2022-11-20T08:15:20.721Z,-2.4
2022-11-20T08:16:34.950Z,-2.3
2022-11-20T08:17:49.164Z,-2.1
2022-11-20T08:19:03.458Z,-1.9
2022-11-20T08:20:17.703Z,-1.8
2022-11-20T08:21:31.939Z,-1.4
2022-11-20T08:22:46.156Z,-1.4
2022-11-20T08:24:00.394Z,-1.3
2022-11-20T08:25:14.685Z,-1.2
2022-11-20T08:26:28.932Z,-1.4
2022-11-20T08:27:43.161Z,-1.6
2022-11-20T08:28:57.383Z,-1.7
2022-11-20T08:31:25.980Z,-1.6
2022-11-20T08:32:40.272Z,-1.5
2022-11-20T08:33:53.567Z,-1.5
2022-11-20T08:35:07.788Z,-1.4
2022-11-20T08:36:22.082Z,-1.3
2022-11-20T08:37:36.323Z,-1.3
2022-11-20T08:38:50.562Z,-1.2
2022-11-20T08:40:04.793Z,-1.1
2022-11-20T08:41:19.022Z,-1
2022-11-20T08:42:33.322Z,-0.9
2022-11-20T08:43:47.551Z,-0.9
2022-11-20T08:45:01.783Z,-0.9
2022-11-20T08:46:16.006Z,-1.1
2022-11-20T08:47:30.238Z,-1.2
2022-11-20T08:48:44.538Z,-1.3
2022-11-20T08:49:58.784Z,-1.3
2022-11-20T08:51:12.999Z,-1.5
2022-11-20T08:52:27.236Z,-1.5
2022-11-20T08:53:41.456Z,-1.6
2022-11-20T08:54:55.757Z,-1.5
2022-11-20T08:56:10.000Z,-1.5
2022-11-20T08:57:24.225Z,-1.4
2022-11-20T08:58:38.464Z,-1.5
2022-11-20T08:59:52.689Z,-1.5
2022-11-20T09:02:21.234Z,-1.4
2022-11-20T09:03:35.454Z,-1.4
2022-11-20T09:04:49.752Z,-1.3
2022-11-20T09:06:03.074Z,-1.3
2022-11-20T09:07:17.367Z,-1.2
2022-11-20T09:08:30.660Z,-1.1
2022-11-20T09:09:44.887Z,-1.1
2022-11-20T09:10:59.187Z,-1.1
2022-11-20T09:12:13.433Z,-1.1
2022-11-20T09:13:27.664Z,-1
2022-11-20T09:14:41.875Z,-1
2022-11-20T09:15:56.117Z,-0.9
2022-11-20T09:17:10.408Z,-0.9
2022-11-20T09:18:24.648Z,-0.8
2022-11-20T09:19:38.878Z,-0.7
2022-11-20T09:20:53.104Z,-0.7
2022-11-20T09:22:07.343Z,-0.7
2022-11-20T09:23:21.633Z,-0.5
2022-11-20T09:24:35.879Z,-0.4
2022-11-20T09:25:50.115Z,-0.1
2022-11-20T09:27:04.333Z,0.5
2022-11-20T09:28:18.570Z,0.7
2022-11-20T09:29:32.871Z,1.1
2022-11-20T09:30:47.106Z,0.8
2022-11-20T09:32:01.323Z,0.7
2022-11-20T09:33:15.561Z,0.8
2022-11-20T09:34:29.792Z,1.1
2022-11-20T09:35:44.085Z,1.8
2022-11-20T09:36:58.334Z,2.5
2022-11-20T09:38:12.566Z,2.6
2022-11-20T09:39:26.849Z,2.6
2022-11-20T09:40:41.120Z,2.8
2022-11-20T09:41:55.446Z,3.4
2022-11-20T09:43:09.717Z,3.5
2022-11-20T09:44:23.011Z,3.7
2022-11-20T09:45:37.247Z,4
2022-11-20T09:46:51.533Z,4.1
2022-11-20T09:48:05.778Z,3.8
2022-11-20T09:50:34.228Z,3.9
2022-11-20T09:51:48.467Z,4.1
2022-11-20T09:53:02.770Z,4.4
2022-11-20T09:54:17.003Z,4.9
2022-11-20T09:55:31.235Z,5
2022-11-20T09:56:45.466Z,5
2022-11-20T09:57:59.695Z,5.1
2022-11-20T09:59:13.994Z,5.3
2022-11-20T10:00:28.225Z,5.4
2022-11-20T10:01:42.446Z,5.8
2022-11-20T10:02:56.686Z,5.8
2022-11-20T10:04:10.907Z,5.7
2022-11-20T10:05:25.201Z,5.8
2022-11-20T10:06:39.457Z,6
2022-11-20T10:07:53.668Z,6.2
2022-11-20T10:09:07.912Z,5.9
2022-11-20T10:10:22.129Z,5.5
2022-11-20T10:11:36.429Z,5.4
2022-11-20T10:12:50.669Z,5.6
2022-11-20T10:14:04.902Z,5.5
2022-11-20T10:15:19.175Z,5.8
2022-11-20T10:16:32.487Z,6
2022-11-20T10:17:46.719Z,5.5
2022-11-20T10:19:00.954Z,5.1
2022-11-20T10:20:15.176Z,4.5
2022-11-20T10:21:29.408Z,3.9
2022-11-20T10:22:43.702Z,3.3
2022-11-20T10:23:57.941Z,3.2
2022-11-20T10:25:12.165Z,3.5
2022-11-20T10:26:26.388Z,4
2022-11-20T10:27:40.625Z,4.4
2022-11-20T10:28:54.934Z,4.6
2022-11-20T10:30:09.159Z,5.2
2022-11-20T10:31:23.392Z,5.2
2022-11-20T10:32:37.609Z,5.8
2022-11-20T10:33:51.839Z,5.9
2022-11-20T10:35:06.146Z,6.2
2022-11-20T10:36:20.398Z,6.4
2022-11-20T10:37:34.606Z,6.6
2022-11-20T10:38:48.835Z,6.5
2022-11-20T10:40:03.060Z,7.2
2022-11-20T10:41:17.364Z,7.7
2022-11-20T10:42:31.605Z,8
2022-11-20T10:43:45.827Z,8.3
2022-11-20T10:45:00.065Z,8.3
2022-11-20T10:46:14.295Z,8.1
2022-11-20T10:48:42.994Z,7.7
2022-11-20T10:49:56.294Z,7.9
2022-11-20T10:51:10.519Z,6.9
2022-11-20T10:52:24.809Z,5.7
2022-11-20T10:53:39.066Z,5.5
2022-11-20T10:54:53.283Z,5.5
2022-11-20T10:56:07.503Z,5.7
2022-11-20T10:57:21.741Z,5.7
2022-11-20T10:58:36.032Z,5.9
2022-11-20T10:59:50.276Z,6
2022-11-20T11:01:04.514Z,6.1
2022-11-20T11:02:18.730Z,6.5
2022-11-20T11:03:32.951Z,6.9
2022-11-20T11:04:47.267Z,6.8
2022-11-20T11:07:15.726Z,6.7
2022-11-20T11:08:29.961Z,7
2022-11-20T11:09:44.173Z,7.1
2022-11-20T11:10:58.484Z,7.3
2022-11-20T11:12:12.731Z,7.8
2022-11-20T11:13:26.953Z,7.2
2022-11-20T11:14:41.174Z,6.9
2022-11-20T11:15:55.405Z,7.1
2022-11-20T11:17:09.708Z,7
2022-11-20T11:18:23.942Z,6.3
2022-11-20T11:19:38.176Z,5.7
2022-11-20T11:20:52.457Z,5.4
2022-11-20T11:22:05.777Z,5.2
2022-11-20T11:23:20.060Z,5.3
2022-11-20T11:24:33.359Z,5.7
2022-11-20T11:25:47.588Z,6.1
2022-11-20T11:27:01.898Z,6.9
2022-11-20T11:29:30.350Z,7
2022-11-20T11:30:44.588Z,6.6
2022-11-20T11:31:58.807Z,6.4
2022-11-20T11:33:13.106Z,7
2022-11-20T11:34:27.347Z,7.9
2022-11-20T11:35:41.583Z,8.4
2022-11-20T11:36:55.818Z,9
2022-11-20T11:38:10.038Z,9.2
2022-11-20T11:39:24.333Z,9.5
2022-11-20T11:40:38.576Z,9.4
2022-11-20T11:41:52.811Z,8.8
2022-11-20T11:43:07.024Z,8.8
2022-11-20T11:44:21.263Z,8.4
2022-11-20T11:45:35.562Z,7.8
2022-11-20T11:46:49.800Z,7.3
2022-11-20T11:48:04.034Z,7
2022-11-20T11:49:18.259Z,7.4
2022-11-20T11:50:32.471Z,7.5
2022-11-20T11:51:46.769Z,7.1
2022-11-20T11:53:01.027Z,6.9
2022-11-20T11:54:15.241Z,7
2022-11-20T11:55:29.532Z,7
2022-11-20T11:56:43.820Z,7.1
2022-11-20T11:57:58.113Z,7.4
2022-11-20T11:59:12.398Z,7.2
2022-11-20T12:00:25.689Z,7.2
2022-11-20T12:01:39.915Z,7.2
2022-11-20T12:02:54.212Z,7.2
2022-11-20T12:04:08.466Z,7.2
2022-11-20T12:05:22.687Z,6.9
2022-11-20T12:06:36.908Z,7.1
2022-11-20T12:07:51.140Z,6.3
2022-11-20T12:09:05.433Z,6
2022-11-20T12:10:19.686Z,5.5
2022-11-20T12:11:33.912Z,5.1
2022-11-20T12:14:02.365Z,4.8
2022-11-20T12:15:16.662Z,4.8
2022-11-20T12:16:30.910Z,4.8
2022-11-20T12:17:45.139Z,5
2022-11-20T12:18:59.355Z,5.3
2022-11-20T12:20:13.574Z,5.3
2022-11-20T12:21:27.892Z,5.2
2022-11-20T12:22:42.126Z,5.1
2022-11-20T12:23:56.344Z,5
2022-11-20T12:25:10.583Z,4.9
2022-11-20T12:26:24.799Z,4.9
2022-11-20T12:27:39.099Z,5
2022-11-20T12:28:53.356Z,4.9
2022-11-20T12:30:07.581Z,5
2022-11-20T12:31:21.857Z,5.1
2022-11-20T12:32:35.167Z,5.2
2022-11-20T12:33:49.404Z,5.4
2022-11-20T12:35:03.624Z,5.6
2022-11-20T12:36:17.855Z,5.4
2022-11-20T12:37:32.077Z,5.5
2022-11-20T12:38:46.373Z,5.4
2022-11-20T12:40:00.615Z,5.5
2022-11-20T12:41:14.849Z,5.4
2022-11-20T12:42:29.073Z,5.4
2022-11-20T12:43:43.289Z,5.2
2022-11-20T12:44:57.597Z,5.2
2022-11-20T12:46:11.844Z,5.3
2022-11-20T12:47:26.060Z,5.2
2022-11-20T12:48:40.301Z,5.4
2022-11-20T12:49:54.513Z,5.4
2022-11-20T12:52:23.070Z,5.3
2022-11-20T12:53:37.297Z,5.3
2022-11-20T12:54:51.523Z,5.3
2022-11-20T12:56:05.736Z,5.4
2022-11-20T12:57:20.040Z,5.4
2022-11-20T12:58:34.276Z,5.5
2022-11-20T12:59:48.518Z,5.6
2022-11-20T13:01:02.727Z,5.7
2022-11-20T13:02:16.000Z,5.8
2022-11-20T13:03:31.317Z,6
2022-11-20T13:04:45.597Z,6.1
2022-11-20T13:05:58.961Z,6.3
2022-11-20T13:07:12.286Z,6.4
2022-11-20T13:08:26.579Z,6.3
2022-11-20T13:09:40.863Z,6.4
2022-11-20T13:10:54.165Z,6.5
2022-11-20T13:12:08.448Z,6.6
2022-11-20T13:13:22.700Z,6.5
2022-11-20T13:14:36.919Z,6.3
2022-11-20T13:15:51.154Z,6.5
2022-11-20T13:18:19.682Z,7
2022-11-20T13:19:33.927Z,7.1
2022-11-20T13:20:48.145Z,7.6
2022-11-20T13:22:02.376Z,7.6
2022-11-20T13:23:16.603Z,7.1
2022-11-20T13:25:45.149Z,6.2
2022-11-20T13:26:59.366Z,5.9
2022-11-20T13:28:13.601Z,5.8
2022-11-20T13:29:27.829Z,5.8
2022-11-20T13:30:42.120Z,6
2022-11-20T13:33:10.597Z,6.9
2022-11-20T13:34:24.813Z,7.4
2022-11-20T13:35:39.046Z,7.8
2022-11-20T13:36:53.340Z,8
2022-11-20T13:38:07.579Z,8.3
2022-11-20T13:39:21.804Z,8.1
2022-11-20T13:40:36.036Z,7.9
2022-11-20T13:41:50.322Z,7.2
2022-11-20T13:43:04.617Z,6.8
2022-11-20T13:44:18.906Z,6.5
2022-11-20T13:45:32.194Z,6.1
2022-11-20T13:46:46.427Z,5.7
2022-11-20T13:48:00.732Z,5.4
2022-11-20T13:49:14.977Z,5.3
2022-11-20T13:50:29.197Z,5.2
2022-11-20T13:51:43.431Z,5.2
2022-11-20T13:52:57.650Z,5
2022-11-20T13:54:11.957Z,5
2022-11-20T13:55:26.193Z,4.9
2022-11-20T13:56:40.411Z,4.9
2022-11-20T13:57:54.645Z,4.9
2022-11-20T13:59:08.872Z,4.9
2022-11-20T14:00:23.182Z,4.8
2022-11-20T14:04:05.872Z,4.9
2022-11-20T14:05:20.093Z,4.9
2022-11-20T14:06:34.397Z,4.9
2022-11-20T14:07:48.626Z,4.9
2022-11-20T14:09:02.862Z,4.9
2022-11-20T14:10:17.088Z,4.8
2022-11-20T14:11:31.318Z,4.8
2022-11-20T14:12:45.610Z,4.7
2022-11-20T14:13:59.862Z,4.7
2022-11-20T14:15:14.092Z,4.7
2022-11-20T14:16:28.370Z,4.7
2022-11-20T14:17:41.708Z,4.6
2022-11-20T14:18:55.983Z,4.6
2022-11-20T14:20:09.285Z,4.5
2022-11-20T14:21:23.503Z,4.4
2022-11-20T14:22:37.803Z,4.4
2022-11-20T14:23:52.041Z,4.4
2022-11-20T14:25:06.269Z,4.4
2022-11-20T14:26:20.512Z,4.3
2022-11-20T14:27:34.738Z,4.3
2022-11-20T14:28:49.024Z,4.2
2022-11-20T14:30:03.269Z,4.2
2022-11-20T14:31:17.497Z,4.2
2022-11-20T14:32:31.718Z,4.1
2022-11-20T14:33:45.955Z,4.1
2022-11-20T14:35:00.000Z,4
2022-11-20T14:36:14.490Z,4
2022-11-20T14:37:28.720Z,4
2022-11-20T14:38:42.947Z,3.9
2022-11-20T14:39:57.180Z,3.9
2022-11-20T14:42:25.708Z,3.9
2022-11-20T14:43:39.958Z,3.9
2022-11-20T14:44:54.172Z,3.9
2022-11-20T14:47:22.704Z,3.9
2022-11-20T14:48:36.940Z,3.9
2022-11-20T14:49:51.163Z,3.9
2022-11-20T14:51:05.448Z,3.9
2022-11-20T14:52:18.744Z,3.9
2022-11-20T14:53:32.997Z,3.9
2022-11-20T14:54:47.209Z,3.9
2022-11-20T14:56:01.435Z,3.9
2022-11-20T14:57:15.664Z,3.9
2022-11-20T14:58:29.984Z,3.9
2022-11-20T14:59:44.209Z,3.9
2022-11-20T15:00:58.429Z,3.9
2022-11-20T15:02:12.670Z,3.9
2022-11-20T15:03:26.884Z,3.9
2022-11-20T15:04:41.187Z,3.9
2022-11-20T15:05:55.428Z,3.9
2022-11-20T15:07:09.669Z,3.9
2022-11-20T15:08:23.895Z,3.8
2022-11-20T15:09:38.112Z,3.8
2022-11-20T15:10:52.417Z,3.8
2022-11-20T15:12:06.648Z,3.8
2022-11-20T15:13:20.886Z,3.8
2022-11-20T15:14:35.100Z,3.8
2022-11-20T15:15:49.328Z,3.8
2022-11-20T15:17:03.638Z,3.8
2022-11-20T15:18:17.888Z,3.8
2022-11-20T15:19:32.111Z,3.8
2022-11-20T15:20:46.328Z,3.8
2022-11-20T15:22:00.568Z,3.7
2022-11-20T15:23:14.919Z,3.7
2022-11-20T15:24:29.197Z,3.7
2022-11-20T15:25:42.500Z,3.7
2022-11-20T15:26:56.734Z,3.7
2022-11-20T15:28:11.022Z,3.7
2022-11-20T15:29:25.272Z,3.7
2022-11-20T15:30:39.498Z,3.7
2022-11-20T15:31:53.850Z,3.7
2022-11-20T15:33:08.072Z,3.7
2022-11-20T15:35:36.602Z,3.7
2022-11-20T15:36:50.842Z,3.6
2022-11-20T15:38:05.059Z,3.6
2022-11-20T15:40:33.586Z,3.6
2022-11-20T15:41:47.829Z,3.6
2022-11-20T15:43:02.070Z,3.6
2022-11-20T15:44:16.289Z,3.6
2022-11-20T15:45:30.522Z,3.6
2022-11-20T15:46:44.818Z,3.6
2022-11-20T15:47:59.048Z,3.6
2022-11-20T15:49:13.292Z,3.6
2022-11-20T15:50:27.509Z,3.6
2022-11-20T15:51:41.730Z,3.6
2022-11-20T15:52:56.027Z,3.6
2022-11-20T15:54:10.286Z,3.6
2022-11-20T15:55:24.502Z,3.6
2022-11-20T15:56:38.736Z,3.5
2022-11-20T15:57:53.019Z,3.5
2022-11-20T15:59:07.368Z,3.5
2022-11-20T16:00:21.657Z,3.5
2022-11-20T16:01:35.932Z,3.5
2022-11-20T16:02:50.256Z,3.5
2022-11-20T16:04:04.546Z,3.5
2022-11-20T16:05:18.889Z,3.5
2022-11-20T16:06:33.128Z,3.5
2022-11-20T16:07:47.355Z,3.5
2022-11-20T16:09:01.642Z,3.5
2022-11-20T16:10:15.914Z,3.5
2022-11-20T16:12:44.654Z,3.4
2022-11-20T16:13:58.939Z,3.4
2022-11-20T16:15:13.211Z,3.4
2022-11-20T16:16:27.612Z,3.4
2022-11-20T16:17:42.010Z,3.4
2022-11-20T16:18:55.414Z,3.4
2022-11-20T16:20:08.788Z,3.4
2022-11-20T16:21:23.144Z,3.4
2022-11-20T16:22:36.488Z,3.4
2022-11-20T16:23:50.757Z,3.4
2022-11-20T16:25:05.167Z,3.3
2022-11-20T16:26:19.489Z,3.3
2022-11-20T16:27:33.788Z,3.3
2022-11-20T16:28:48.049Z,3.3
2022-11-20T16:30:02.467Z,3.3
2022-11-20T16:31:16.788Z,3.3
2022-11-20T16:32:31.062Z,3.3
2022-11-20T16:33:45.343Z,3.3
2022-11-20T16:34:59.752Z,3.3
2022-11-20T16:36:14.083Z,3.3
2022-11-20T16:38:42.645Z,3.3
2022-11-20T16:39:57.056Z,3.3
2022-11-20T16:41:11.380Z,3.2
2022-11-20T16:42:25.653Z,3.3
2022-11-20T16:43:39.934Z,3.3
2022-11-20T16:44:54.351Z,3.3
2022-11-20T16:46:08.660Z,3.3
2022-11-20T16:47:22.957Z,3.3
2022-11-20T16:48:37.226Z,3.3
2022-11-20T16:49:51.629Z,3.3
2022-11-20T16:51:05.966Z,3.3
2022-11-20T16:52:20.251Z,3.3
2022-11-20T16:53:34.581Z,3.3
2022-11-20T16:54:48.993Z,3.3
2022-11-20T16:56:03.318Z,3.3
2022-11-20T16:57:16.676Z,3.3
2022-11-20T16:58:30.962Z,3.3
2022-11-20T16:59:45.361Z,3.3
2022-11-20T17:00:59.701Z,3.3
2022-11-20T17:02:13.964Z,3.3
2022-11-20T17:03:28.250Z,3.3
2022-11-20T17:04:42.656Z,3.3
2022-11-20T17:05:56.992Z,3.3
2022-11-20T17:07:11.258Z,3.3
2022-11-20T17:08:25.546Z,3.3
2022-11-20T17:09:39.960Z,3.3
2022-11-20T17:10:54.266Z,3.3
2022-11-20T17:12:08.549Z,3.3
2022-11-20T17:13:22.827Z,3.3
2022-11-20T17:14:37.236Z,3.3
2022-11-20T17:15:51.569Z,3.3
2022-11-20T17:17:05.847Z,3.3
2022-11-20T17:18:20.125Z,3.3
2022-11-20T17:19:34.534Z,3.3
2022-11-20T17:20:48.862Z,3.3
2022-11-20T17:22:03.130Z,3.3
2022-11-20T17:24:31.825Z,3.2
2022-11-20T17:25:46.155Z,3.2